Time;durP1;ratioP1;P1;durP2;ratioP2;P2;SDS_P1;SDS_P2;PMS_P1;PMS_P2;Temp;Humidity;BMP_temperature;BMP_pressure;BME280_temperature;BME280_humidity;BME280_pressure;Samples;Min_cycle;Max_cycle;Signal;HPM_P1;HPM_P2
2022/09/03 00:01:37;;;;;;;;;;;;;;;20.27;49.00;99620.47;4480521;31;33541;-63
2022/09/03 00:04:10;;;;;;;;;;;;;;;20.30;48.65;99622.00;4474076;32;34010;-63
2022/09/03 00:06:38;;;;;;;;;;;;;;;20.31;48.71;99623.69;4464438;32;33904;-64
2022/09/03 00:09:08;;;;;;;;;;;;;;;20.30;48.57;99622.84;4467720;32;35431;-63
2022/09/03 00:11:44;;;;;;;;;;;;;;;20.27;48.63;99622.34;4472691;32;32198;-62
2022/09/03 00:14:32;;;;;;;;;;;;;;;20.26;48.57;99618.81;4476392;32;34063;-60
2022/09/03 00:17:01;;;;;;;;;;;;;;;20.22;48.65;99612.00;4481013;31;34140;-61
2022/09/03 00:19:32;;;;;;;;;;;;;;;20.13;48.83;99622.09;4480221;32;32834;-61
2022/09/03 00:22:06;;;;;;;;;;;;;;;20.07;49.13;99616.53;4476716;31;33554;-64
2022/09/03 00:24:34;;;;;;;;;;;;;;;20.09;49.06;99623.47;4473535;32;34785;-61
2022/09/03 00:27:02;;;;;;;;;;;;;;;20.07;49.19;99619.25;4476268;32;33310;-64
2022/09/03 00:29:32;;;;;;;;;;;;;;;19.98;49.37;99616.59;4474829;32;34018;-63
2022/09/03 00:32:02;;;;;;;;;;;;;;;20.06;48.79;99615.69;4470125;32;32913;-63
2022/09/03 00:34:30;;;;;;;;;;;;;;;20.05;48.72;99616.72;4465728;31;33816;-64
2022/09/03 00:36:57;;;;;;;;;;;;;;;20.02;48.96;99615.19;4478499;32;37037;-62
2022/09/03 00:39:25;;;;;;;;;;;;;;;20.07;48.68;99616.53;4479095;31;34168;-64
2022/09/03 00:42:06;;;;;;;;;;;;;;;20.09;48.63;99615.31;4465188;32;32799;-64
2022/09/03 00:44:43;;;;;;;;;;;;;;;20.05;48.57;99619.44;4478645;31;34029;-64
2022/09/03 00:47:17;;;;;;;;;;;;;;;20.07;48.67;99617.38;4479223;32;35574;-61
2022/09/03 00:49:49;;;;;;;;;;;;;;;20.00;48.80;99613.69;4463770;32;34149;-61
2022/09/03 00:52:23;;;;;;;;;;;;;;;19.95;49.11;99613.37;4472316;32;33251;-62
2022/09/03 00:55:10;;;;;;;;;;;;;;;20.00;49.23;99619.13;4474424;31;34061;-61
2022/09/03 00:57:37;;;;;;;;;;;;;;;19.96;49.36;99613.19;4469922;32;34048;-62
2022/09/03 01:00:07;;;;;;;;;;;;;;;20.04;49.08;99616.91;4476467;31;34973;-62
2022/09/03 01:02:45;;;;;;;;;;;;;;;20.03;49.11;99610.59;4473782;32;33335;-62
2022/09/03 01:05:19;;;;;;;;;;;;;;;19.92;49.08;99621.88;4469715;31;33777;-62
2022/09/03 01:08:03;;;;;;;;;;;;;;;19.84;49.31;99622.78;4477788;32;35084;-62
2022/09/03 01:10:38;;;;;;;;;;;;;;;19.86;49.16;99619.87;4479637;32;34069;-62
2022/09/03 01:13:21;;;;;;;;;;;;;;;19.73;50.07;99631.31;4469580;32;33132;-61
2022/09/03 01:16:21;;;;;;;;;;;;;;;19.76;49.69;99629.06;4476416;32;34114;-61
2022/09/03 01:18:49;;;;;;;;;;;;;;;19.76;50.00;99630.94;4432918;32;33891;-61
2022/09/03 01:21:22;;;;;;;;;;;;;;;19.81;49.61;99635.84;4477895;32;32723;-61
2022/09/03 01:23:56;;;;;;;;;;;;;;;19.81;49.61;99631.28;4477297;31;33495;-61
2022/09/03 01:26:35;;;;;;;;;;;;;;;19.89;49.29;99635.81;4473267;32;33791;-61
2022/09/03 01:29:34;;;;;;;;;;;;;;;19.88;49.28;99631.41;4475192;32;33803;-63
2022/09/03 01:32:07;;;;;;;;;;;;;;;19.82;49.66;99641.13;4467195;32;33876;-61
2022/09/03 01:34:34;;;;;;;;;;;;;;;19.90;49.13;99632.06;4469209;32;34371;-62
2022/09/03 01:37:11;;;;;;;;;;;;;;;19.94;49.02;99631.56;4473801;32;34060;-61
2022/09/03 01:39:48;;;;;;;;;;;;;;;19.90;49.05;99632.06;4476149;31;34215;-62
2022/09/03 01:42:23;;;;;;;;;;;;;;;19.83;49.27;99636.53;4473998;32;32888;-62
2022/09/03 01:45:11;;;;;;;;;;;;;;;19.85;49.15;99635.31;4476818;32;32936;-62
2022/09/03 01:47:49;;;;;;;;;;;;;;;19.81;49.26;99642.16;4474240;32;34848;-62
2022/09/03 01:50:19;;;;;;;;;;;;;;;19.69;49.42;99646.25;4476586;31;34330;-62
2022/09/03 01:53:05;;;;;;;;;;;;;;;19.58;49.56;99638.44;4480755;32;32612;-62
2022/09/03 01:55:36;;;;;;;;;;;;;;;19.54;49.49;99641.50;4480476;31;33081;-62
2022/09/03 01:58:06;;;;;;;;;;;;;;;19.48;50.01;99638.66;4478785;32;32844;-61
2022/09/03 02:00:35;;;;;;;;;;;;;;;19.46;49.84;99644.28;4467351;32;34565;-62
2022/09/03 02:03:04;;;;;;;;;;;;;;;19.29;50.55;99645.31;4468153;32;34110;-62
2022/09/03 02:05:34;;;;;;;;;;;;;;;19.43;50.12;99652.75;4477835;32;33370;-62
2022/09/03 02:08:10;;;;;;;;;;;;;;;19.42;49.98;99645.66;4476672;32;33486;-62
2022/09/03 02:10:42;;;;;;;;;;;;;;;19.46;50.11;99638.84;4467987;32;33890;-62
2022/09/03 02:13:10;;;;;;;;;;;;;;;19.41;50.55;99651.25;4467990;32;34051;-62
2022/09/03 02:15:39;;;;;;;;;;;;;;;19.39;50.42;99635.16;4466273;32;33566;-62
2022/09/03 02:18:09;;;;;;;;;;;;;;;19.44;50.08;99640.88;4472086;32;32788;-62
2022/09/03 02:20:37;;;;;;;;;;;;;;;19.33;50.34;99645.84;4472183;32;34880;-62
2022/09/03 02:23:04;;;;;;;;;;;;;;;19.15;51.20;99649.59;4478661;31;35606;-62
2022/09/03 02:25:33;;;;;;;;;;;;;;;19.29;49.93;99648.03;4472178;32;33537;-62
2022/09/03 02:28:01;;;;;;;;;;;;;;;19.20;50.28;99649.09;4473836;32;34864;-62
2022/09/03 02:30:28;;;;;;;;;;;;;;;19.36;50.11;99640.91;4475180;32;33764;-62
2022/09/03 02:32:56;;;;;;;;;;;;;;;19.43;49.78;99641.06;4479245;31;32755;-62
2022/09/03 02:35:23;;;;;;;;;;;;;;;19.41;49.98;99637.66;4475036;32;33262;-62
2022/09/03 02:37:51;;;;;;;;;;;;;;;19.44;50.13;99642.75;4476412;32;33082;-62
2022/09/03 02:40:18;;;;;;;;;;;;;;;19.46;49.89;99638.84;4476768;32;32973;-62
2022/09/03 02:42:45;;;;;;;;;;;;;;;19.45;49.90;99639.00;4475743;32;34108;-62
2022/09/03 02:45:18;;;;;;;;;;;;;;;19.41;50.32;99637.66;4478725;32;33497;-62
2022/09/03 02:47:46;;;;;;;;;;;;;;;19.51;50.12;99639.16;4474059;32;35265;-62
2022/09/03 02:50:14;;;;;;;;;;;;;;;19.44;50.09;99642.75;4471160;32;34342;-61
2022/09/03 02:52:41;;;;;;;;;;;;;;;19.44;50.08;99642.75;4476993;31;33920;-62
2022/09/03 02:55:09;;;;;;;;;;;;;;;19.33;50.12;99643.13;4480200;31;33245;-62
2022/09/03 02:57:36;;;;;;;;;;;;;;;19.28;50.16;99651.78;4476530;32;34116;-62
2022/09/03 03:00:04;;;;;;;;;;;;;;;19.30;49.66;99642.44;4479117;31;33026;-62
2022/09/03 03:02:31;;;;;;;;;;;;;;;19.33;49.60;99646.69;4477321;32;32605;-62
2022/09/03 03:04:59;;;;;;;;;;;;;;;19.31;49.53;99640.59;4477884;31;34276;-62
2022/09/03 03:07:27;;;;;;;;;;;;;;;19.34;49.44;99642.09;4479045;32;34074;-62
2022/09/03 03:09:54;;;;;;;;;;;;;;;19.26;49.72;99632.09;4479116;32;35214;-62
2022/09/03 03:12:22;;;;;;;;;;;;;;;19.13;50.56;99639.94;4478798;31;34184;-62
2022/09/03 03:14:49;;;;;;;;;;;;;;;19.17;49.94;99638.59;4476780;32;33016;-62
2022/09/03 03:17:16;;;;;;;;;;;;;;;19.17;49.92;99644.00;4475694;31;33733;-62
2022/09/03 03:19:44;;;;;;;;;;;;;;;19.15;49.84;99646.88;4468865;32;34317;-62
2022/09/03 03:22:11;;;;;;;;;;;;;;;19.18;49.94;99651.13;4482138;31;34158;-62
2022/09/03 03:24:38;;;;;;;;;;;;;;;19.07;50.33;99652.34;4480170;32;31915;-62
2022/09/03 03:27:09;;;;;;;;;;;;;;;19.04;50.61;99655.41;4472985;32;32874;-62
2022/09/03 03:29:36;;;;;;;;;;;;;;;18.91;51.09;99658.63;4475311;32;33909;-62
2022/09/03 03:32:04;;;;;;;;;;;;;;;18.96;51.07;99664.38;4479698;32;35302;-62
2022/09/03 03:34:31;;;;;;;;;;;;;;;19.04;50.97;99658.94;4483877;32;33310;-62
2022/09/03 03:36:59;;;;;;;;;;;;;;;19.08;51.12;99656.75;4482783;32;33983;-62
2022/09/03 03:39:26;;;;;;;;;;;;;;;18.97;51.25;99657.94;4473634;31;35826;-62
2022/09/03 03:41:54;;;;;;;;;;;;;;;19.12;50.91;99659.94;4477589;32;34090;-61
2022/09/03 03:44:21;;;;;;;;;;;;;;;19.18;50.59;99660.09;4470395;32;33141;-61
2022/09/03 03:46:49;;;;;;;;;;;;;;;19.27;50.60;99664.50;4476157;32;34047;-62
2022/09/03 03:49:16;;;;;;;;;;;;;;;19.24;50.71;99669.44;4479645;31;33838;-62
2022/09/03 03:51:44;;;;;;;;;;;;;;;19.31;50.21;99665.84;4478147;32;33666;-61
2022/09/03 03:54:11;;;;;;;;;;;;;;;19.26;50.53;99668.25;4482009;31;33362;-61
2022/09/03 03:56:44;;;;;;;;;;;;;;;19.09;50.99;99664.69;4482902;32;34005;-61
2022/09/03 03:59:21;;;;;;;;;;;;;;;19.06;51.00;99661.47;4476356;31;35371;-61
2022/09/03 04:01:50;;;;;;;;;;;;;;;18.93;51.30;99666.56;4476730;32;34730;-60
2022/09/03 04:04:18;;;;;;;;;;;;;;;18.99;50.74;99676.75;4476077;32;31414;-63
2022/09/03 04:06:45;;;;;;;;;;;;;;;19.02;50.84;99669.12;4475311;32;32807;-64
2022/09/03 04:09:12;;;;;;;;;;;;;;;19.08;50.55;99679.28;4480920;32;33839;-63
2022/09/03 04:11:40;;;;;;;;;;;;;;;19.08;50.42;99683.88;4480774;31;34202;-63
2022/09/03 04:14:07;;;;;;;;;;;;;;;19.11;50.36;99682.69;4478965;32;32157;-64
2022/09/03 04:16:34;;;;;;;;;;;;;;;19.06;50.73;99677.75;4480665;32;32321;-63
2022/09/03 04:19:02;;;;;;;;;;;;;;;19.18;50.26;99691.81;4475901;32;34083;-63
2022/09/03 04:21:30;;;;;;;;;;;;;;;19.14;50.47;99691.31;4480554;31;34863;-63
2022/09/03 04:23:57;;;;;;;;;;;;;;;19.17;50.39;99690.97;4481079;32;33159;-63
2022/09/03 04:26:31;;;;;;;;;;;;;;;19.22;50.26;99693.16;4482209;32;35192;-63
2022/09/03 04:29:00;;;;;;;;;;;;;;;19.24;50.03;99683.84;4476750;32;32544;-63
2022/09/03 04:31:28;;;;;;;;;;;;;;;19.17;50.15;99679.28;4480900;32;34832;-64
2022/09/03 04:33:56;;;;;;;;;;;;;;;19.24;50.03;99680.28;4476072;31;32028;-63
2022/09/03 04:36:24;;;;;;;;;;;;;;;19.13;51.10;99689.59;4477436;32;34080;-62
2022/09/03 04:38:53;;;;;;;;;;;;;;;19.25;50.23;99693.66;4474630;31;32950;-63
2022/09/03 04:41:23;;;;;;;;;;;;;;;19.16;50.57;99699.28;4484971;32;33827;-63
2022/09/03 04:43:51;;;;;;;;;;;;;;;19.26;50.38;99699.94;4484314;32;33372;-63
2022/09/03 04:46:19;;;;;;;;;;;;;;;19.26;50.20;99698.09;4483339;32;34883;-63
2022/09/03 04:48:47;;;;;;;;;;;;;;;19.28;50.26;99698.75;4485246;32;34873;-64
2022/09/03 04:51:15;;;;;;;;;;;;;;;19.30;50.29;99701.31;4481785;32;34099;-63
2022/09/03 04:53:44;;;;;;;;;;;;;;;19.29;50.36;99702.31;4482557;32;32465;-63
2022/09/03 04:56:16;;;;;;;;;;;;;;;19.16;51.07;99702.81;4482516;32;35159;-63
2022/09/03 04:58:44;;;;;;;;;;;;;;;19.03;51.33;99702.50;4482890;32;35347;-63
2022/09/03 05:01:15;;;;;;;;;;;;;;;18.91;51.67;99712.00;4474789;32;32938;-63
2022/09/03 05:03:42;;;;;;;;;;;;;;;18.81;51.81;99706.72;4479338;31;33336;-63
2022/09/03 05:06:10;;;;;;;;;;;;;;;19.01;51.24;99705.41;4482738;32;34949;-63
2022/09/03 05:08:39;;;;;;;;;;;;;;;19.11;51.13;99697.09;4483983;32;34316;-63
2022/09/03 05:11:06;;;;;;;;;;;;;;;19.36;50.55;99706.06;4482813;32;34160;-63
2022/09/03 05:13:34;;;;;;;;;;;;;;;19.62;50.24;99699.53;4479520;32;32747;-63
2022/09/03 05:16:05;;;;;;;;;;;;;;;20.39;48.54;99706.03;4485699;32;32734;-63
2022/09/03 05:18:34;;;;;;;;;;;;;;;20.30;49.12;99707.09;4479603;32;34467;-64
2022/09/03 05:21:06;;;;;;;;;;;;;;;20.46;48.42;99708.88;4482504;32;32809;-64
2022/09/03 05:23:38;;;;;;;;;;;;;;;20.51;48.39;99708.31;4482902;32;34214;-65
2022/09/03 05:26:09;;;;;;;;;;;;;;;20.62;48.41;99708.78;4480610;32;34303;-64
2022/09/03 05:28:38;;;;;;;;;;;;;;;20.70;47.75;99706.00;4479755;32;34269;-64
2022/09/03 05:31:06;;;;;;;;;;;;;;;20.73;47.81;99707.53;4480070;32;34555;-63
2022/09/03 05:33:34;;;;;;;;;;;;;;;20.75;47.74;99704.63;4481316;32;33140;-64
2022/09/03 05:36:06;;;;;;;;;;;;;;;20.80;47.92;99707.62;4482776;32;33949;-65
2022/09/03 05:38:33;;;;;;;;;;;;;;;20.99;47.86;99709.03;4482920;32;33184;-64
2022/09/03 05:41:02;;;;;;;;;;;;;;;21.03;47.78;99713.09;4478042;32;34340;-64
2022/09/03 05:43:29;;;;;;;;;;;;;;;21.01;48.04;99707.81;4483063;32;32102;-64
2022/09/03 05:46:01;;;;;;;;;;;;;;;20.93;48.28;99711.47;4483060;32;32779;-61
2022/09/03 05:48:29;;;;;;;;;;;;;;;21.01;48.51;99713.25;4479462;32;34315;-62
2022/09/03 05:51:00;;;;;;;;;;;;;;;21.06;48.77;99710.84;4484071;32;32819;-61
2022/09/03 05:53:27;;;;;;;;;;;;;;;22.05;46.48;99711.53;4478978;32;31987;-62
2022/09/03 05:55:56;;;;;;;;;;;;;;;23.90;42.20;99710.78;4482625;32;34307;-61
2022/09/03 05:58:24;;;;;;;;;;;;;;;25.32;39.00;99710.78;4482053;32;33863;-62
2022/09/03 06:00:51;;;;;;;;;;;;;;;25.07;39.52;99704.22;4483494;32;35136;-62
2022/09/03 06:03:19;;;;;;;;;;;;;;;24.20;41.37;99700.41;4480182;31;33639;-62
2022/09/03 06:05:53;;;;;;;;;;;;;;;23.83;42.58;99702.56;4469454;32;33947;-62
2022/09/03 06:08:20;;;;;;;;;;;;;;;23.48;43.46;99707.12;4476164;32;34043;-65
2022/09/03 06:10:48;;;;;;;;;;;;;;;23.27;44.32;99716.22;4484330;32;35285;-62
2022/09/03 06:13:15;;;;;;;;;;;;;;;23.17;44.89;99715.72;4479409;32;33496;-62
2022/09/03 06:15:43;;;;;;;;;;;;;;;23.01;45.17;99706.75;4476233;32;34981;-62
2022/09/03 06:18:10;;;;;;;;;;;;;;;22.94;45.37;99700.38;4481047;32;32897;-62
2022/09/03 06:20:37;;;;;;;;;;;;;;;22.86;45.35;99703.25;4485053;32;34261;-63
2022/09/03 06:23:04;;;;;;;;;;;;;;;22.75;45.65;99706.47;4482931;32;33335;-62
2022/09/03 06:25:32;;;;;;;;;;;;;;;22.78;45.79;99709.66;4481102;32;32479;-63
2022/09/03 06:28:01;;;;;;;;;;;;;;;22.51;46.87;99704.97;4477537;32;33024;-63
2022/09/03 06:30:28;;;;;;;;;;;;;;;22.78;46.21;99706.91;4481146;31;33973;-63
2022/09/03 06:32:55;;;;;;;;;;;;;;;23.02;45.67;99703.00;4478046;32;31717;-63
2022/09/03 06:35:23;;;;;;;;;;;;;;;22.91;46.51;99703.47;4480317;32;35024;-62
2022/09/03 06:37:51;;;;;;;;;;;;;;;23.07;46.06;99701.56;4470757;32;35214;-62
2022/09/03 06:40:21;;;;;;;;;;;;;;;22.97;46.18;99699.16;4477971;32;34172;-62
2022/09/03 06:42:58;;;;;;;;;;;;;;;23.09;45.89;99699.47;4480738;32;35294;-62
2022/09/03 06:45:25;;;;;;;;;;;;;;;22.89;46.04;99696.53;4466842;31;33658;-63
2022/09/03 06:47:52;;;;;;;;;;;;;;;22.59;47.60;99688.47;4475752;32;35401;-62
2022/09/03 06:50:20;;;;;;;;;;;;;;;22.97;45.85;99691.81;4480562;32;37008;-61
2022/09/03 06:52:53;;;;;;;;;;;;;;;22.74;46.09;99696.59;4479987;32;34339;-62
2022/09/03 06:55:21;;;;;;;;;;;;;;;22.92;46.57;99697.00;4480228;32;32888;-62
2022/09/03 06:57:52;;;;;;;;;;;;;;;23.10;46.59;99690.25;4481761;32;34906;-62
2022/09/03 07:00:22;;;;;;;;;;;;;;;23.25;45.54;99689.13;4478176;32;34195;-62
2022/09/03 07:02:57;;;;;;;;;;;;;;;23.45;44.54;99691.16;4481657;32;33179;-62
2022/09/03 07:05:27;;;;;;;;;;;;;;;23.40;44.69;99693.63;4466595;32;33447;-62
2022/09/03 07:07:55;;;;;;;;;;;;;;;23.22;44.48;99696.84;4471139;31;33100;-62
2022/09/03 07:10:22;;;;;;;;;;;;;;;23.16;44.74;99690.28;4478068;32;34267;-62
2022/09/03 07:12:49;;;;;;;;;;;;;;;23.42;44.00;99694.28;4470393;31;35577;-62
2022/09/03 07:15:19;;;;;;;;;;;;;;;23.38;43.50;99693.84;4479241;32;33757;-62
2022/09/03 07:17:46;;;;;;;;;;;;;;;23.23;43.08;99687.63;4476402;31;32833;-62
2022/09/03 07:20:13;;;;;;;;;;;;;;;22.85;43.73;99696.06;4477852;32;34114;-63
2022/09/03 07:22:41;;;;;;;;;;;;;;;23.06;43.55;99691.69;4479191;31;33174;-62
2022/09/03 07:25:08;;;;;;;;;;;;;;;23.36;42.96;99687.72;4479753;32;33512;-62
2022/09/03 07:27:36;;;;;;;;;;;;;;;23.33;43.28;99684.53;4471078;31;34305;-63
2022/09/03 07:30:08;;;;;;;;;;;;;;;23.25;43.02;99686.38;4479988;32;33875;-62
2022/09/03 07:32:39;;;;;;;;;;;;;;;23.42;42.40;99691.53;4478237;32;33418;-62
2022/09/03 07:35:07;;;;;;;;;;;;;;;23.49;42.23;99682.34;4480178;31;35841;-62
2022/09/03 07:37:35;;;;;;;;;;;;;;;22.71;43.85;99692.38;4471541;32;33465;-62
2022/09/03 07:40:03;;;;;;;;;;;;;;;22.63;43.67;99702.56;4475993;31;33804;-62
2022/09/03 07:42:31;;;;;;;;;;;;;;;23.19;42.55;99691.78;4478254;32;33402;-63
2022/09/03 07:44:58;;;;;;;;;;;;;;;23.19;42.98;99703.56;4479733;31;35114;-63
2022/09/03 07:47:26;;;;;;;;;;;;;;;22.91;43.96;99705.38;4477767;32;34345;-62
2022/09/03 07:49:54;;;;;;;;;;;;;;;22.44;44.74;99706.75;4478669;31;34237;-62
2022/09/03 07:52:21;;;;;;;;;;;;;;;22.94;43.86;99705.84;4482581;32;33164;-62
2022/09/03 07:54:49;;;;;;;;;;;;;;;23.21;43.73;99703.34;4466766;31;34097;-62
2022/09/03 07:57:16;;;;;;;;;;;;;;;22.59;44.19;99706.72;4470894;31;35117;-62
2022/09/03 07:59:44;;;;;;;;;;;;;;;23.11;44.18;99700.94;4479928;32;33902;-62
2022/09/03 08:02:11;;;;;;;;;;;;;;;22.93;43.87;99708.75;4479142;31;33139;-62
2022/09/03 08:04:39;;;;;;;;;;;;;;;22.64;44.16;99702.38;4479657;32;33687;-62
2022/09/03 08:07:07;;;;;;;;;;;;;;;23.31;42.61;99703.03;4483122;31;35012;-62
2022/09/03 08:09:34;;;;;;;;;;;;;;;22.51;45.56;99699.53;4479792;32;35322;-62
2022/09/03 08:12:02;;;;;;;;;;;;;;;22.79;43.33;99705.91;4483445;31;33064;-62
2022/09/03 08:14:30;;;;;;;;;;;;;;;23.00;43.17;99712.41;4476095;32;35127;-62
2022/09/03 08:16:58;;;;;;;;;;;;;;;23.29;43.16;99702.38;4476810;31;35186;-62
2022/09/03 08:19:26;;;;;;;;;;;;;;;23.44;43.51;99709.44;4477921;32;35247;-62
2022/09/03 08:21:53;;;;;;;;;;;;;;;23.73;42.19;99707.56;4469947;32;32139;-62
2022/09/03 08:24:23;;;;;;;;;;;;;;;23.74;42.39;99701.03;4478430;32;32702;-62
2022/09/03 08:26:51;;;;;;;;;;;;;;;23.67;41.51;99705.59;4482009;32;32966;-62
2022/09/03 08:29:19;;;;;;;;;;;;;;;24.06;40.63;99699.50;4477574;32;33589;-63
2022/09/03 08:31:46;;;;;;;;;;;;;;;23.77;41.66;99708.81;4477722;32;33239;-62
2022/09/03 08:34:16;;;;;;;;;;;;;;;24.03;41.42;99704.53;4480186;31;32971;-62
2022/09/03 08:36:45;;;;;;;;;;;;;;;23.99;40.77;99711.47;4477147;32;35133;-62
2022/09/03 08:39:12;;;;;;;;;;;;;;;23.82;41.26;99710.94;4477446;31;34945;-63
2022/09/03 08:41:43;;;;;;;;;;;;;;;24.11;40.34;99707.97;4480916;32;32591;-62
2022/09/03 08:44:19;;;;;;;;;;;;;;;24.05;41.35;99707.94;4481373;31;33347;-61
2022/09/03 08:46:50;;;;;;;;;;;;;;;23.76;41.08;99712.63;4480166;32;34159;-62
2022/09/03 08:49:22;;;;;;;;;;;;;;;23.27;42.14;99716.22;4481297;31;33209;-62
2022/09/03 08:51:49;;;;;;;;;;;;;;;23.89;40.38;99709.13;4474520;32;33175;-62
2022/09/03 08:54:17;;;;;;;;;;;;;;;23.43;41.88;99713.19;4476446;31;35257;-63
2022/09/03 08:56:44;;;;;;;;;;;;;;;23.63;41.70;99707.03;4478744;32;34367;-62
2022/09/03 08:59:12;;;;;;;;;;;;;;;23.49;41.94;99712.37;4481032;32;32885;-64
2022/09/03 09:01:39;;;;;;;;;;;;;;;24.06;40.83;99710.44;4473221;31;31868;-62
2022/09/03 09:04:10;;;;;;;;;;;;;;;24.38;39.72;99706.16;4476685;32;34848;-62
2022/09/03 09:06:37;;;;;;;;;;;;;;;24.58;39.68;99703.50;4471272;32;34313;-62
2022/09/03 09:09:23;;;;;;;;;;;;;;;24.22;40.20;99697.47;4479992;32;33961;-63
2022/09/03 09:12:09;;;;;;;;;;;;;;;24.31;40.77;99699.84;4470212;32;32597;-62
2022/09/03 09:14:44;;;;;;;;;;;;;;;24.13;40.14;99696.81;4473580;32;33984;-63
2022/09/03 09:17:36;;;;;;;;;;;;;;;24.29;40.10;99695.59;4465729;32;33044;-63
2022/09/03 09:20:22;;;;;;;;;;;;;;;24.06;41.51;99694.03;4469518;32;34309;-62
2022/09/03 09:22:51;;;;;;;;;;;;;;;24.71;40.44;99688.19;4468875;32;33344;-63
2022/09/03 09:25:23;;;;;;;;;;;;;;;25.32;38.13;99685.28;4477048;32;34061;-63
2022/09/03 09:27:52;;;;;;;;;;;;;;;25.44;37.99;99678.09;4475486;31;35218;-63
2022/09/03 09:30:20;;;;;;;;;;;;;;;24.71;38.98;99680.81;4477854;32;34238;-63
2022/09/03 09:32:47;;;;;;;;;;;;;;;24.71;40.28;99679.97;4480118;31;33293;-63
2022/09/03 09:35:15;;;;;;;;;;;;;;;24.69;39.71;99684.78;4477630;32;33967;-63
2022/09/03 09:38:01;;;;;;;;;;;;;;;25.01;40.42;99678.53;4467738;31;34062;-63
2022/09/03 09:40:32;;;;;;;;;;;;;;;25.46;38.29;99680.66;4475108;32;34219;-63
2022/09/03 09:43:03;;;;;;;;;;;;;;;24.84;40.40;99689.03;4477082;31;31802;-62
2022/09/03 09:45:33;;;;;;;;;;;;;;;25.09;38.84;99682.94;4476396;31;33029;-62
2022/09/03 09:48:00;;;;;;;;;;;;;;;25.48;38.16;99678.53;4466563;32;32649;-62
2022/09/03 09:50:28;;;;;;;;;;;;;;;25.66;37.97;99686.09;4475432;32;32782;-62
2022/09/03 09:52:59;;;;;;;;;;;;;;;25.51;38.32;99686.31;4473162;32;33206;-63
2022/09/03 09:55:27;;;;;;;;;;;;;;;25.50;37.84;99685.47;4478898;31;35287;-63
2022/09/03 09:58:05;;;;;;;;;;;;;;;25.43;38.81;99679.19;4481347;32;34600;-62
2022/09/03 10:00:38;;;;;;;;;;;;;;;25.52;38.48;99680.63;4476678;31;34001;-63
2022/09/03 10:03:06;;;;;;;;;;;;;;;25.47;38.68;99679.59;4472750;32;31592;-62
2022/09/03 10:05:35;;;;;;;;;;;;;;;25.41;37.16;99677.69;4468801;32;34176;-63
2022/09/03 10:08:05;;;;;;;;;;;;;;;25.78;37.99;99696.19;4472091;31;35217;-63
2022/09/03 10:10:43;;;;;;;;;;;;;;;25.78;36.94;99687.97;4480390;31;35082;-63
2022/09/03 10:13:12;;;;;;;;;;;;;;;26.10;36.36;99682.59;4479476;32;33499;-63
2022/09/03 10:15:58;;;;;;;;;;;;;;;25.90;35.26;99690.06;4480378;31;34101;-62
2022/09/03 10:18:42;;;;;;;;;;;;;;;25.70;36.05;99693.66;4477363;32;33080;-63
2022/09/03 10:21:10;;;;;;;;;;;;;;;25.93;36.45;99687.72;4473353;31;32532;-63
2022/09/03 10:23:49;;;;;;;;;;;;;;;26.63;33.92;99676.84;4477863;32;33392;-63
2022/09/03 10:26:17;;;;;;;;;;;;;;;26.61;33.90;99679.00;4471223;31;34448;-63
2022/09/03 10:28:44;;;;;;;;;;;;;;;26.67;33.10;99680.00;4477155;32;34357;-63
2022/09/03 10:31:12;;;;;;;;;;;;;;;26.24;34.25;99673.25;4469713;32;34060;-63
2022/09/03 10:33:54;;;;;;;;;;;;;;;26.09;34.31;99671.84;4479286;31;33133;-63
2022/09/03 10:36:30;;;;;;;;;;;;;;;26.65;34.21;99673.91;4479816;32;33180;-63
2022/09/03 10:39:16;;;;;;;;;;;;;;;27.00;33.34;99673.41;4479300;31;34405;-64
2022/09/03 10:41:53;;;;;;;;;;;;;;;26.62;34.54;99668.88;4465954;32;34081;-63
2022/09/03 10:44:33;;;;;;;;;;;;;;;26.71;32.72;99667.53;4480690;31;33892;-63
2022/09/03 10:47:08;;;;;;;;;;;;;;;26.75;32.21;99671.50;4466592;32;34485;-63
2022/09/03 10:49:39;;;;;;;;;;;;;;;26.80;32.29;99666.19;4469516;32;34032;-63
2022/09/03 10:52:30;;;;;;;;;;;;;;;26.47;33.98;99658.97;4466101;32;33438;-63
2022/09/03 10:55:01;;;;;;;;;;;;;;;26.97;33.40;99655.50;4465378;32;33389;-63
2022/09/03 10:57:35;;;;;;;;;;;;;;;26.86;32.56;99662.53;4479724;32;33075;-63
2022/09/03 11:00:08;;;;;;;;;;;;;;;27.14;32.16;99644.81;4476078;32;35571;-63
2022/09/03 11:02:47;;;;;;;;;;;;;;;27.21;33.02;99645.59;4483619;32;33634;-62
2022/09/03 11:05:28;;;;;;;;;;;;;;;27.51;31.60;99653.13;4479948;32;34961;-63
2022/09/03 11:08:05;;;;;;;;;;;;;;;28.04;29.41;99645.13;4482627;32;34856;-64
2022/09/03 11:10:34;;;;;;;;;;;;;;;27.22;31.31;99654.69;4483843;32;34224;-63
2022/09/03 11:13:09;;;;;;;;;;;;;;;27.76;29.33;99648.41;4472227;32;34240;-63
2022/09/03 11:15:39;;;;;;;;;;;;;;;27.63;29.65;99648.56;4468965;32;32788;-63
2022/09/03 11:18:34;;;;;;;;;;;;;;;27.49;29.12;99649.78;4480160;32;35300;-63
2022/09/03 11:21:04;;;;;;;;;;;;;;;27.62;29.91;99655.12;4477049;32;35753;-63
2022/09/03 11:23:43;;;;;;;;;;;;;;;27.16;29.75;99653.69;4475420;32;34176;-63
2022/09/03 11:26:11;;;;;;;;;;;;;;;27.82;29.04;99641.19;4475029;32;33087;-62
2022/09/03 11:28:44;;;;;;;;;;;;;;;27.88;30.68;99648.50;4470332;32;34160;-64
2022/09/03 11:31:46;;;;;;;;;;;;;;;27.57;30.67;99655.78;4471177;32;32941;-64
2022/09/03 11:34:14;;;;;;;;;;;;;;;27.43;30.48;99645.19;4449471;31;34768;-63
2022/09/03 11:37:06;;;;;;;;;;;;;;;27.84;30.36;99652.81;4478379;32;34548;-63
2022/09/03 11:39:35;;;;;;;;;;;;;;;27.43;31.55;99651.53;4480816;32;33893;-63
2022/09/03 11:42:23;;;;;;;;;;;;;;;28.16;29.69;99647.12;4472403;32;35628;-63
2022/09/03 11:44:53;;;;;;;;;;;;;;;28.07;30.28;99646.59;4479304;32;33262;-64
2022/09/03 11:47:22;;;;;;;;;;;;;;;27.60;29.80;99644.34;4471033;32;34247;-63
2022/09/03 11:49:50;;;;;;;;;;;;;;;27.47;30.16;99644.50;4481235;32;33941;-63
2022/09/03 11:52:27;;;;;;;;;;;;;;;27.32;29.80;99653.13;4478436;32;34913;-64
2022/09/03 11:54:55;;;;;;;;;;;;;;;27.52;28.92;99652.91;4478443;32;35443;-63
2022/09/03 11:57:24;;;;;;;;;;;;;;;27.32;29.17;99650.37;4473391;32;33784;-64
2022/09/03 11:59:52;;;;;;;;;;;;;;;27.51;29.93;99654.00;4477106;32;34069;-64
2022/09/03 12:02:22;;;;;;;;;;;;;;;27.68;30.16;99653.38;4483840;32;33478;-63
2022/09/03 12:05:12;;;;;;;;;;;;;;;28.13;29.84;99658.59;4476511;32;34117;-64
2022/09/03 12:07:39;;;;;;;;;;;;;;;28.32;30.12;99654.72;4469869;32;34093;-63
2022/09/03 12:10:19;;;;;;;;;;;;;;;28.42;28.62;99648.69;4480932;32;35304;-63
2022/09/03 12:12:52;;;;;;;;;;;;;;;28.43;29.19;99653.13;4478092;32;35089;-63
2022/09/03 12:15:46;;;;;;;;;;;;;;;28.27;28.77;99649.91;4478775;32;35268;-63
2022/09/03 12:18:18;;;;;;;;;;;;;;;28.15;29.15;99648.16;4470544;32;32097;-64
2022/09/03 12:20:47;;;;;;;;;;;;;;;28.26;29.41;99639.97;4455448;32;33679;-64
2022/09/03 12:23:24;;;;;;;;;;;;;;;27.87;30.03;99641.34;4477288;32;34311;-64
2022/09/03 12:25:52;;;;;;;;;;;;;;;27.82;30.28;99639.28;4483389;31;34005;-64
2022/09/03 12:28:23;;;;;;;;;;;;;;;27.29;31.59;99647.25;4483525;32;33463;-64
2022/09/03 12:30:52;;;;;;;;;;;;;;;27.10;31.00;99643.56;4479945;32;32873;-64
2022/09/03 12:33:20;;;;;;;;;;;;;;;26.99;30.95;99647.88;4480928;32;34096;-64
2022/09/03 12:36:00;;;;;;;;;;;;;;;27.28;30.60;99642.78;4470108;31;34854;-63
2022/09/03 12:38:31;;;;;;;;;;;;;;;26.64;31.29;99642.84;4474167;32;33378;-63
2022/09/03 12:41:27;;;;;;;;;;;;;;;26.99;31.02;99633.31;4478735;31;34108;-63
2022/09/03 12:43:56;;;;;;;;;;;;;;;26.95;31.08;99641.97;4480567;32;34136;-64
2022/09/03 12:46:24;;;;;;;;;;;;;;;27.18;31.32;99638.66;4481572;31;34382;-63
2022/09/03 12:49:04;;;;;;;;;;;;;;;27.75;30.19;99637.66;4480030;32;33354;-63
2022/09/03 12:51:53;;;;;;;;;;;;;;;27.65;30.74;99632.69;4469428;32;33107;-63
2022/09/03 12:54:24;;;;;;;;;;;;;;;27.56;30.57;99639.53;4469643;32;34157;-63
2022/09/03 12:56:55;;;;;;;;;;;;;;;26.80;31.17;99646.12;4473978;32;34077;-63
2022/09/03 12:59:23;;;;;;;;;;;;;;;26.77;31.51;99647.41;4480019;32;32262;-63
2022/09/03 13:01:54;;;;;;;;;;;;;;;26.66;31.40;99646.22;4482794;31;32780;-63
2022/09/03 13:04:25;;;;;;;;;;;;;;;26.79;32.04;99639.78;4472848;32;32916;-63
2022/09/03 13:06:55;;;;;;;;;;;;;;;27.14;31.38;99642.91;4479685;31;33284;-64
2022/09/03 13:09:23;;;;;;;;;;;;;;;27.20;31.30;99640.34;4475078;32;33444;-64